Time,TemperatureF,DewpointF,PressureIn,WindDirection,WindDirectionDegrees,WindSpeedMPH,WindSpeedGustMPH,Humidity,HourlyPrecipIn,Conditions,Clouds,dailyrainin,SoftwareType,DateUTC
2013-09-13 00:00:00,66.1,66.1,29.61,SW,222,0.0,6.0,100,0.00,,---,0.00,VWS V14.01,2013-09-13 04:00:00,
2013-09-13 00:01:00,66.1,66.1,29.61,SW,222,0.0,6.0,100,0.00,,---,0.00,VWS V14.01,2013-09-13 04:01:00,
2013-09-13 00:02:00,66.1,66.1,29.61,SSW,200,5.0,6.0,100,0.00,,---,0.00,VWS V14.01,2013-09-13 04:02:00,
2013-09-13 00:03:00,66.1,66.1,29.61,SSW,199,5.0,6.0,100,0.00,,---,0.00,VWS V14.01,2013-09-13 04:03:00,
2013-09-13 00:08:00,66.1,66.1,29.61,SW,215,0.0,6.0,100,0.00,,---,0.00,VWS V14.01,2013-09-13 04:08:00,
2013-09-13 00:14:00,66.1,66.1,29.61,South,175,0.0,6.0,100,0.00,,---,0.00,VWS V14.01,2013-09-13 04:14:00,
2013-09-13 00:19:00,65.8,65.8,29.60,SSW,212,0.0,6.0,100,0.00,,---,0.00,VWS V14.01,2013-09-13 04:19:00,
2013-09-13 00:24:00,65.5,65.5,29.60,ESE,116,5.0,6.0,100,0.00,,---,0.00,VWS V14.01,2013-09-13 04:24:00,
2013-09-13 00:29:00,65.5,65.5,29.60,SW,220,2.0,6.0,100,0.00,,---,0.00,VWS V14.01,2013-09-13 04:29:00,
2013-09-13 00:34:00,65.8,65.8,29.60,SSW,198,2.0,6.0,100,0.00,,---,0.00,VWS V14.01,2013-09-13 04:34:00,
2013-09-13 00:39:00,65.8,65.8,29.60,SSW,212,3.0,6.0,100,0.00,,---,0.00,VWS V14.01,2013-09-13 04:39:00,
2013-09-13 00:44:00,66.0,66.0,29.60,SSW,195,2.0,6.0,100,0.00,,---,0.00,VWS V14.01,2013-09-13 04:44:00,
2013-09-13 00:49:00,66.0,66.0,29.60,SSW,200,3.0,6.0,100,0.00,,---,0.00,VWS V14.01,2013-09-13 04:49:00,
2013-09-13 00:54:00,66.3,66.3,29.60,SW,216,6.0,6.0,100,0.00,,---,0.00,VWS V14.01,2013-09-13 04:54:00,
2013-09-13 00:59:00,66.3,66.3,29.60,SSW,203,3.0,10.0,100,0.01,,---,0.01,VWS V14.01,2013-09-13 04:59:00,
2013-09-13 01:00:00,66.3,66.3,29.60,SSW,210,6.0,10.0,100,0.01,,---,-99.99,VWS V14.01,2013-09-13 05:00:00,
2013-09-13 01:04:00,66.0,66.0,29.60,South,188,6.0,6.0,100,0.02,,---,0.02,VWS V14.01,2013-09-13 05:04:00,
2013-09-13 01:09:00,66.1,66.1,29.60,SW,219,7.0,7.0,100,0.02,,---,0.02,VWS V14.01,2013-09-13 05:09:00,
2013-09-13 01:15:00,66.4,66.4,29.59,SSW,193,0.0,7.0,100,0.04,,---,0.04,VWS V14.01,2013-09-13 05:15:00,
2013-09-13 01:20:00,67.4,67.4,29.59,South,179,2.0,7.0,100,0.04,,---,0.04,VWS V14.01,2013-09-13 05:20:00,
2013-09-13 01:25:00,66.6,66.6,29.59,SSW,192,5.0,7.0,100,0.05,,---,0.05,VWS V14.01,2013-09-13 05:25:00,
2013-09-13 01:30:00,66.4,66.4,29.58,SSW,199,7.0,8.0,100,0.05,,---,0.05,VWS V14.01,2013-09-13 05:30:00,
2013-09-13 01:35:00,66.4,66.4,29.58,SSW,208,11.0,11.0,100,0.05,,---,0.05,VWS V14.01,2013-09-13 05:35:00,
2013-09-13 01:40:00,66.4,66.4,29.58,SSW,203,0.0,11.0,100,0.05,,---,0.05,VWS V14.01,2013-09-13 05:40:00,
2013-09-13 01:45:00,66.6,66.6,29.58,SSW,200,8.0,11.0,100,0.05,,---,0.05,VWS V14.01,2013-09-13 05:45:00,
2013-09-13 01:50:00,66.9,66.9,29.58,SSW,203,9.0,11.0,100,0.05,,---,0.05,VWS V14.01,2013-09-13 05:50:00,
2013-09-13 01:55:00,66.9,66.9,29.58,SSW,196,9.0,11.0,100,0.05,,---,0.05,VWS V14.01,2013-09-13 05:55:00,
2013-09-13 02:00:00,66.8,66.8,29.58,SW,227,7.0,7.0,100,0.04,,---,0.05,VWS V14.01,2013-09-13 06:00:00,
2013-09-13 02:05:00,66.6,66.6,29.58,SW,215,6.0,9.0,100,0.04,,---,0.05,VWS V14.01,2013-09-13 06:05:00,
2013-09-13 02:10:00,66.6,66.6,29.58,SSW,212,7.0,10.0,100,0.04,,---,0.05,VWS V14.01,2013-09-13 06:10:00,
2013-09-13 02:16:00,66.0,66.0,29.58,SSW,206,11.0,11.0,100,0.04,,---,0.05,VWS V14.01,2013-09-13 06:16:00,
2013-09-13 02:21:00,65.8,65.8,29.58,SW,232,8.0,11.0,100,0.04,,---,0.05,VWS V14.01,2013-09-13 06:21:00,
2013-09-13 02:26:00,66.6,66.6,29.58,SW,223,5.0,11.0,100,0.04,,---,0.05,VWS V14.01,2013-09-13 06:26:00,
2013-09-13 02:31:00,66.6,66.6,29.57,SSW,203,7.0,11.0,100,0.04,,---,0.05,VWS V14.01,2013-09-13 06:31:00,
2013-09-13 02:36:00,66.6,66.6,29.57,SW,233,6.0,11.0,100,0.04,,---,0.05,VWS V14.01,2013-09-13 06:36:00,
2013-09-13 02:41:00,65.6,65.6,29.57,SSW,200,1.0,11.0,100,0.06,,---,0.07,VWS V14.01,2013-09-13 06:41:00,
2013-09-13 02:46:00,65.8,65.8,29.55,SSW,206,1.0,11.0,100,0.06,,---,0.07,VWS V14.01,2013-09-13 06:46:00,
2013-09-13 02:51:00,65.8,65.8,29.55,SSW,212,2.0,11.0,100,0.07,,---,0.08,VWS V14.01,2013-09-13 06:51:00,
2013-09-13 02:56:00,65.8,65.8,29.55,SW,234,0.0,11.0,100,0.07,,---,0.08,VWS V14.01,2013-09-13 06:56:00,
2013-09-13 03:00:00,65.6,65.6,29.55,SW,226,6.0,11.0,100,0.07,,---,-99.99,VWS V14.01,2013-09-13 07:00:00,
2013-09-13 03:01:00,65.8,65.8,29.55,SW,220,9.0,10.0,100,0.03,,---,0.08,VWS V14.01,2013-09-13 07:01:00,
2013-09-13 03:06:00,65.8,65.8,29.55,SSW,210,4.0,10.0,100,0.03,,---,0.08,VWS V14.01,2013-09-13 07:06:00,
2013-09-13 03:11:00,65.5,65.5,29.55,SSW,200,3.0,10.0,100,0.03,,---,0.08,VWS V14.01,2013-09-13 07:11:00,
2013-09-13 03:16:00,65.5,65.5,29.54,SSW,206,1.0,10.0,100,0.03,,---,0.08,VWS V14.01,2013-09-13 07:16:00,
2013-09-13 03:21:00,65.5,65.5,29.54,SSW,200,5.0,10.0,100,0.03,,---,0.08,VWS V14.01,2013-09-13 07:21:00,
2013-09-13 03:26:00,65.3,65.3,29.54,SW,217,5.0,10.0,100,0.03,,---,0.08,VWS V14.01,2013-09-13 07:26:00,
2013-09-13 03:31:00,65.3,65.3,29.54,SSW,203,6.0,10.0,100,0.03,,---,0.08,VWS V14.01,2013-09-13 07:31:00,
2013-09-13 03:36:00,65.3,65.3,29.54,SSW,209,3.0,10.0,100,0.03,,---,0.08,VWS V14.01,2013-09-13 07:36:00,
2013-09-13 03:42:00,65.6,65.6,29.54,South,188,5.0,10.0,100,0.03,,---,0.08,VWS V14.01,2013-09-13 07:42:00,
2013-09-13 03:47:00,65.6,65.6,29.54,SSE,148,4.0,10.0,100,0.03,,---,0.08,VWS V14.01,2013-09-13 07:47:00,
2013-09-13 03:52:00,65.5,65.5,29.54,SSW,205,0.0,10.0,100,0.03,,---,0.08,VWS V14.01,2013-09-13 07:52:00,
2013-09-13 03:57:00,65.3,65.3,29.54,SSW,208,3.0,10.0,100,0.03,,---,0.08,VWS V14.01,2013-09-13 07:57:00,
2013-09-13 04:00:00,66.1,66.1,29.54,SSW,212,1.0,10.0,100,0.03,,---,-99.99,VWS V14.01,2013-09-13 08:00:00,
2013-09-13 04:02:00,65.2,65.2,29.54,SSW,199,0.0,6.0,100,0.00,,---,0.08,VWS V14.01,2013-09-13 08:02:00,
2013-09-13 04:07:00,65.2,65.2,29.54,SSW,208,2.0,6.0,100,0.00,,---,0.08,VWS V14.01,2013-09-13 08:07:00,
2013-09-13 04:12:00,66.0,66.0,29.54,SSW,209,0.0,6.0,100,0.00,,---,0.08,VWS V14.01,2013-09-13 08:12:00,
2013-09-13 04:17:00,66.0,66.0,29.55,SSW,208,0.0,6.0,100,0.00,,---,0.08,VWS V14.01,2013-09-13 08:17:00,
2013-09-13 04:22:00,66.0,66.0,29.55,SW,220,3.0,6.0,100,0.00,,---,0.08,VWS V14.01,2013-09-13 08:22:00,
2013-09-13 04:27:00,66.0,66.0,29.55,WSW,239,7.0,8.0,100,0.00,,---,0.08,VWS V14.01,2013-09-13 08:27:00,
2013-09-13 04:32:00,65.0,65.0,29.55,WSW,241,11.0,11.0,100,0.00,,---,0.08,VWS V14.01,2013-09-13 08:32:00,
2013-09-13 04:37:00,64.7,64.7,29.55,WSW,241,6.0,11.0,100,0.00,,---,0.08,VWS V14.01,2013-09-13 08:37:00,
2013-09-13 04:42:00,64.7,64.7,29.55,WSW,241,6.0,11.0,100,0.00,,---,0.08,VWS V14.01,2013-09-13 08:42:00,
2013-09-13 04:48:00,64.8,64.8,29.56,WSW,243,6.0,11.0,100,0.00,,---,0.08,VWS V14.01,2013-09-13 08:48:00,
2013-09-13 04:53:00,65.0,65.0,29.56,WSW,243,5.0,11.0,100,0.00,,---,0.08,VWS V14.01,2013-09-13 08:53:00,
2013-09-13 04:58:00,65.3,65.3,29.56,WSW,243,6.0,11.0,100,0.00,,---,0.08,VWS V14.01,2013-09-13 08:58:00,
2013-09-13 05:00:00,65.3,65.3,29.56,WSW,240,5.0,11.0,100,0.00,,---,-99.99,VWS V14.01,2013-09-13 09:00:00,
2013-09-13 05:03:00,65.3,65.3,29.56,WSW,240,5.0,5.0,100,0.00,,---,0.08,VWS V14.01,2013-09-13 09:03:00,
2013-09-13 05:08:00,65.5,65.5,29.56,WSW,240,4.0,5.0,100,0.00,,---,0.08,VWS V14.01,2013-09-13 09:08:00,
2013-09-13 05:13:00,65.6,65.6,29.56,WSW,241,5.0,6.0,100,0.00,,---,0.08,VWS V14.01,2013-09-13 09:13:00,
2013-09-13 05:18:00,65.6,65.6,29.55,WSW,243,5.0,6.0,100,0.00,,---,0.08,VWS V14.01,2013-09-13 09:18:00,
2013-09-13 05:23:00,65.6,65.6,29.55,WSW,243,4.0,6.0,100,0.00,,---,0.08,VWS V14.01,2013-09-13 09:23:00,
2013-09-13 05:28:00,66.4,66.4,29.55,WSW,243,4.0,6.0,100,0.00,,---,0.08,VWS V14.01,2013-09-13 09:28:00,
2013-09-13 05:33:00,65.5,65.5,29.56,WSW,243,2.0,6.0,100,0.00,,---,0.08,VWS V14.01,2013-09-13 09:33:00,
2013-09-13 05:38:00,65.5,65.5,29.56,WSW,243,0.0,6.0,100,0.00,,---,0.08,VWS V14.01,2013-09-13 09:38:00,
2013-09-13 05:43:00,65.5,65.5,29.56,WSW,243,0.0,6.0,100,0.00,,---,0.08,VWS V14.01,2013-09-13 09:43:00,
2013-09-13 05:48:00,65.5,65.5,29.55,WSW,243,0.0,6.0,100,0.00,,---,0.08,VWS V14.01,2013-09-13 09:48:00,
2013-09-13 05:53:00,65.6,65.6,29.55,WSW,243,0.0,6.0,100,0.00,,---,0.08,VWS V14.01,2013-09-13 09:53:00,
2013-09-13 05:59:00,66.6,66.6,29.55,WSW,243,0.0,6.0,100,0.00,,---,0.08,VWS V14.01,2013-09-13 09:59:00,
2013-09-13 06:00:00,66.6,66.6,29.56,WSW,243,0.0,6.0,100,0.00,,---,-99.99,VWS V14.01,2013-09-13 10:00:00,
2013-09-13 06:04:00,66.6,66.6,29.56,WSW,243,0.0,0.0,100,0.00,,---,0.08,VWS V14.01,2013-09-13 10:04:00,
2013-09-13 06:09:00,66.6,66.6,29.56,WSW,243,0.0,0.0,100,0.00,,---,0.08,VWS V14.01,2013-09-13 10:09:00,
2013-09-13 06:14:00,65.6,65.6,29.56,WSW,243,0.0,0.0,100,0.00,,---,0.08,VWS V14.01,2013-09-13 10:14:00,
2013-09-13 06:19:00,65.6,65.6,29.56,WSW,243,0.0,0.0,100,0.00,,---,0.08,VWS V14.01,2013-09-13 10:19:00,
2013-09-13 06:24:00,65.8,65.8,29.56,WSW,243,0.0,0.0,100,0.00,,---,0.08,VWS V14.01,2013-09-13 10:24:00,
2013-09-13 06:29:00,65.8,65.8,29.56,WSW,243,0.0,0.0,100,0.00,,---,0.08,VWS V14.01,2013-09-13 10:29:00,
2013-09-13 06:34:00,66.6,66.6,29.56,WSW,243,0.0,0.0,100,0.01,,---,0.09,VWS V14.01,2013-09-13 10:34:00,
2013-09-13 06:39:00,65.6,65.6,29.56,WSW,243,0.0,0.0,100,0.01,,---,0.09,VWS V14.01,2013-09-13 10:39:00,
2013-09-13 06:44:00,65.8,65.8,29.56,WSW,243,0.0,0.0,100,0.01,,---,0.09,VWS V14.01,2013-09-13 10:44:00,
2013-09-13 06:49:00,65.8,65.8,29.56,WSW,243,0.0,0.0,100,0.01,,---,0.09,VWS V14.01,2013-09-13 10:49:00,
2013-09-13 06:54:00,66.6,66.6,29.56,WSW,243,0.0,0.0,100,0.01,,---,0.09,VWS V14.01,2013-09-13 10:54:00,
2013-09-13 06:59:00,66.6,66.6,29.57,WSW,243,0.0,0.0,100,0.01,,---,0.09,VWS V14.01,2013-09-13 10:59:00,
2013-09-13 07:00:00,65.8,65.8,29.57,WSW,243,0.0,0.0,100,0.01,,---,-99.99,VWS V14.01,2013-09-13 11:00:00,
2013-09-13 07:04:00,66.0,66.0,29.57,WSW,243,0.0,0.0,100,0.01,,---,0.09,VWS V14.01,2013-09-13 11:04:00,
2013-09-13 07:09:00,66.0,66.0,29.57,WSW,243,0.0,0.0,100,0.01,,---,0.09,VWS V14.01,2013-09-13 11:09:00,
2013-09-13 07:15:00,66.0,66.0,29.57,WSW,243,0.0,0.0,100,0.01,,---,0.09,VWS V14.01,2013-09-13 11:15:00,
2013-09-13 07:20:00,66.0,66.0,29.57,WSW,243,0.0,0.0,100,0.01,,---,0.09,VWS V14.01,2013-09-13 11:20:00,
2013-09-13 07:25:00,66.0,66.0,29.57,WSW,243,0.0,0.0,100,0.01,,---,0.09,VWS V14.01,2013-09-13 11:25:00,
2013-09-13 07:30:00,66.9,66.9,29.57,WSW,243,0.0,0.0,100,0.01,,---,0.09,VWS V14.01,2013-09-13 11:30:00,
2013-09-13 07:35:00,66.1,66.1,29.57,WSW,243,0.0,0.0,100,0.01,,---,0.09,VWS V14.01,2013-09-13 11:35:00,
2013-09-13 07:40:00,67.1,67.1,29.57,WSW,243,0.0,0.0,100,0.01,,---,0.09,VWS V14.01,2013-09-13 11:40:00,
2013-09-13 07:45:00,67.1,67.1,29.57,WSW,243,0.0,0.0,100,0.01,,---,0.09,VWS V14.01,2013-09-13 11:45:00,
2013-09-13 07:50:00,66.1,66.1,29.57,WSW,243,0.0,0.0,100,0.01,,---,0.09,VWS V14.01,2013-09-13 11:50:00,
2013-09-13 07:55:00,66.1,66.1,29.57,WSW,243,0.0,0.0,100,0.02,,---,0.10,VWS V14.01,2013-09-13 11:55:00,
2013-09-13 08:00:00,66.3,66.3,29.58,WSW,243,0.0,0.0,100,0.01,,---,0.10,VWS V14.01,2013-09-13 12:00:00,
2013-09-13 08:05:00,67.3,67.3,29.58,WSW,243,0.0,0.0,100,0.01,,---,0.10,VWS V14.01,2013-09-13 12:05:00,
2013-09-13 08:10:00,67.3,67.3,29.58,WSW,243,0.0,0.0,100,0.01,,---,0.10,VWS V14.01,2013-09-13 12:10:00,
2013-09-13 08:16:00,67.3,67.3,29.57,WSW,243,0.0,0.0,100,0.01,,---,0.10,VWS V14.01,2013-09-13 12:16:00,
2013-09-13 08:21:00,66.8,66.8,29.57,WSW,243,0.0,0.0,100,0.01,,---,0.10,VWS V14.01,2013-09-13 12:21:00,
2013-09-13 08:26:00,66.8,66.8,29.57,WSW,243,0.0,0.0,100,0.01,,---,0.10,VWS V14.01,2013-09-13 12:26:00,
2013-09-13 08:31:00,66.9,66.9,29.58,WSW,243,0.0,0.0,100,0.01,,---,0.10,VWS V14.01,2013-09-13 12:31:00,
2013-09-13 08:36:00,66.9,66.9,29.58,WSW,247,0.0,0.0,100,0.01,,---,0.10,VWS V14.01,2013-09-13 12:36:00,
2013-09-13 08:41:00,66.9,66.9,29.58,WSW,247,0.0,0.0,100,0.01,,---,0.10,VWS V14.01,2013-09-13 12:41:00,
2013-09-13 08:46:00,66.8,66.8,29.57,WSW,247,0.0,0.0,100,0.01,,---,0.10,VWS V14.01,2013-09-13 12:46:00,
2013-09-13 08:51:00,66.8,66.8,29.57,WSW,247,0.0,0.0,100,0.01,,---,0.10,VWS V14.01,2013-09-13 12:51:00,
2013-09-13 08:56:00,66.8,66.8,29.57,WSW,247,0.0,0.0,100,0.01,,---,0.10,VWS V14.01,2013-09-13 12:56:00,
2013-09-13 09:00:00,66.0,66.0,29.58,WSW,247,0.0,0.0,100,0.01,,---,-99.99,VWS V14.01,2013-09-13 13:00:00,
2013-09-13 09:01:00,66.0,66.0,29.58,WSW,247,0.0,0.0,100,0.00,,---,0.10,VWS V14.01,2013-09-13 13:01:00,
2013-09-13 09:06:00,66.0,66.0,29.58,WSW,247,0.0,0.0,100,0.00,,---,0.10,VWS V14.01,2013-09-13 13:06:00,
2013-09-13 09:11:00,66.9,66.9,29.58,WSW,247,0.0,0.0,100,0.00,,---,0.10,VWS V14.01,2013-09-13 13:11:00,
2013-09-13 09:16:00,66.3,66.3,29.58,WSW,247,0.0,0.0,100,0.00,,---,0.10,VWS V14.01,2013-09-13 13:16:00,
2013-09-13 09:21:00,66.4,66.4,29.58,WSW,247,0.0,0.0,100,0.01,,---,0.11,VWS V14.01,2013-09-13 13:21:00,
2013-09-13 09:26:00,66.4,66.4,29.58,WSW,247,0.0,0.0,100,0.01,,---,0.11,VWS V14.01,2013-09-13 13:26:00,
2013-09-13 09:32:00,66.4,66.4,29.59,WSW,247,0.0,0.0,100,0.01,,---,0.11,VWS V14.01,2013-09-13 13:32:00,
2013-09-13 09:37:00,66.4,66.4,29.59,WSW,247,0.0,0.0,100,0.01,,---,0.11,VWS V14.01,2013-09-13 13:37:00,
2013-09-13 09:42:00,66.4,66.4,29.59,WSW,247,0.0,0.0,100,0.01,,---,0.11,VWS V14.01,2013-09-13 13:42:00,
2013-09-13 09:47:00,66.3,66.3,29.59,WSW,247,0.0,0.0,100,0.01,,---,0.11,VWS V14.01,2013-09-13 13:47:00,
2013-09-13 09:52:00,66.4,66.4,29.59,WSW,251,0.0,0.0,100,0.01,,---,0.11,VWS V14.01,2013-09-13 13:52:00,
2013-09-13 09:57:00,66.3,66.3,29.59,WSW,251,0.0,0.0,100,0.01,,---,0.11,VWS V14.01,2013-09-13 13:57:00,
2013-09-13 10:00:00,66.3,66.3,29.58,WSW,251,0.0,0.0,100,0.02,,---,-99.99,VWS V14.01,2013-09-13 14:00:00,
2013-09-13 10:02:00,66.3,66.3,29.58,WSW,251,0.0,0.0,100,0.02,,---,0.12,VWS V14.01,2013-09-13 14:02:00,
2013-09-13 10:07:00,66.1,66.1,29.58,WSW,251,0.0,0.0,100,0.02,,---,0.12,VWS V14.01,2013-09-13 14:07:00,
2013-09-13 10:12:00,66.8,66.8,29.58,WSW,251,0.0,0.0,100,0.02,,---,0.12,VWS V14.01,2013-09-13 14:12:00,
2013-09-13 10:17:00,66.9,66.9,29.58,WSW,251,0.0,0.0,100,0.02,,---,0.12,VWS V14.01,2013-09-13 14:17:00,
2013-09-13 10:22:00,67.1,67.1,29.58,WSW,251,0.0,0.0,100,0.02,,---,0.12,VWS V14.01,2013-09-13 14:22:00,
2013-09-13 10:27:00,66.3,66.3,29.58,WSW,251,0.0,0.0,100,0.02,,---,0.12,VWS V14.01,2013-09-13 14:27:00,
2013-09-13 10:32:00,66.3,66.3,29.58,WSW,251,0.0,0.0,100,0.02,,---,0.12,VWS V14.01,2013-09-13 14:32:00,
2013-09-13 10:38:00,67.4,67.4,29.58,WSW,251,0.0,0.0,100,0.02,,---,0.12,VWS V14.01,2013-09-13 14:38:00,
2013-09-13 10:43:00,66.4,66.4,29.58,WSW,251,0.0,0.0,100,0.03,,---,0.13,VWS V14.01,2013-09-13 14:43:00,
2013-09-13 10:48:00,66.4,66.4,29.57,WSW,251,0.0,0.0,100,0.03,,---,0.13,VWS V14.01,2013-09-13 14:48:00,
2013-09-13 10:53:00,66.4,66.4,29.57,NNE,32,0.0,0.0,100,0.04,,---,0.14,VWS V14.01,2013-09-13 14:53:00,
2013-09-13 10:58:00,67.3,67.3,29.57,NNE,32,0.0,0.0,100,0.05,,---,0.15,VWS V14.01,2013-09-13 14:58:00,
2013-09-13 11:00:00,67.3,67.3,29.57,NNE,32,0.0,0.0,100,0.05,,---,-99.99,VWS V14.01,2013-09-13 15:00:00,
2013-09-13 11:03:00,66.3,66.3,29.57,NNE,32,0.0,0.0,100,0.03,,---,0.15,VWS V14.01,2013-09-13 15:03:00,
2013-09-13 11:08:00,66.3,66.3,29.57,NNE,32,0.0,0.0,100,0.04,,---,0.16,VWS V14.01,2013-09-13 15:08:00,
2013-09-13 11:13:00,66.3,66.3,29.57,NNE,32,0.0,0.0,100,0.04,,---,0.16,VWS V14.01,2013-09-13 15:13:00,
2013-09-13 11:18:00,66.1,66.1,29.57,NNE,32,0.0,0.0,100,0.05,,---,0.17,VWS V14.01,2013-09-13 15:18:00,
2013-09-13 11:23:00,66.9,66.9,29.57,NNE,32,0.0,0.0,100,0.05,,---,0.17,VWS V14.01,2013-09-13 15:23:00,
2013-09-13 11:28:00,66.9,66.9,29.57,NNE,32,0.0,0.0,100,0.10,,---,0.22,VWS V14.01,2013-09-13 15:28:00,
2013-09-13 11:33:00,66.0,66.0,29.56,NNE,32,0.0,0.0,100,0.10,,---,0.22,VWS V14.01,2013-09-13 15:33:00,
2013-09-13 11:39:00,65.8,65.8,29.56,NNE,32,0.0,0.0,100,0.11,,---,0.23,VWS V14.01,2013-09-13 15:39:00,
2013-09-13 11:44:00,65.6,65.6,29.56,NNE,32,0.0,0.0,100,0.12,,---,0.24,VWS V14.01,2013-09-13 15:44:00,
2013-09-13 11:49:00,66.8,66.8,29.56,NNE,32,0.0,0.0,100,0.12,,---,0.24,VWS V14.01,2013-09-13 15:49:00,
2013-09-13 11:54:00,66.8,66.8,29.56,NNE,32,0.0,0.0,100,0.12,,---,0.24,VWS V14.01,2013-09-13 15:54:00,
2013-09-13 11:59:00,66.8,66.8,29.56,NNE,32,0.0,0.0,100,0.12,,---,0.24,VWS V14.01,2013-09-13 15:59:00,
2013-09-13 12:00:00,66.9,66.9,29.56,NNE,32,0.0,0.0,100,0.12,,---,-99.99,VWS V14.01,2013-09-13 16:00:00,
2013-09-13 12:04:00,66.0,66.0,29.56,NNE,32,0.0,0.0,100,0.09,,---,0.24,VWS V14.01,2013-09-13 16:04:00,
2013-09-13 12:09:00,66.0,66.0,29.56,NNE,32,0.0,0.0,100,0.10,,---,0.25,VWS V14.01,2013-09-13 16:09:00,
2013-09-13 12:14:00,66.3,66.3,29.55,NNE,32,0.0,0.0,100,0.10,,---,0.25,VWS V14.01,2013-09-13 16:14:00,
2013-09-13 12:19:00,66.3,66.3,29.55,NNE,32,0.0,0.0,100,0.10,,---,0.25,VWS V14.01,2013-09-13 16:19:00,
2013-09-13 12:24:00,67.4,67.4,29.55,NNE,32,0.0,0.0,100,0.10,,---,0.25,VWS V14.01,2013-09-13 16:24:00,
2013-09-13 12:29:00,67.4,67.4,29.55,NNE,32,0.0,0.0,100,0.10,,---,0.25,VWS V14.01,2013-09-13 16:29:00,
2013-09-13 12:34:00,67.4,67.4,29.55,NNE,32,0.0,0.0,100,0.10,,---,0.25,VWS V14.01,2013-09-13 16:34:00,
2013-09-13 12:39:00,67.4,67.4,29.55,NNE,32,0.0,0.0,100,0.10,,---,0.25,VWS V14.01,2013-09-13 16:39:00,
2013-09-13 12:44:00,67.4,67.4,29.55,NNE,32,0.0,0.0,100,0.10,,---,0.25,VWS V14.01,2013-09-13 16:44:00,
2013-09-13 12:49:00,66.6,66.6,29.55,NNE,32,0.0,0.0,100,0.10,,---,0.25,VWS V14.01,2013-09-13 16:49:00,
2013-09-13 12:55:00,66.6,66.6,29.55,NNE,32,0.0,0.0,100,0.10,,---,0.25,VWS V14.01,2013-09-13 16:55:00,
2013-09-13 13:00:00,67.8,67.8,29.55,NNE,32,0.0,0.0,100,0.11,,---,0.26,VWS V14.01,2013-09-13 17:00:00,
2013-09-13 13:05:00,67.1,67.1,29.55,NNE,32,0.0,0.0,100,0.03,,---,0.27,VWS V14.01,2013-09-13 17:05:00,
2013-09-13 13:10:00,67.3,67.3,29.55,NNE,32,0.0,0.0,100,0.03,,---,0.27,VWS V14.01,2013-09-13 17:10:00,
2013-09-13 13:15:00,67.3,67.3,29.54,NNE,32,0.0,0.0,100,0.03,,---,0.27,VWS V14.01,2013-09-13 17:15:00,
2013-09-13 13:20:00,67.6,67.6,29.54,NNE,32,0.0,0.0,100,0.03,,---,0.27,VWS V14.01,2013-09-13 17:20:00,
2013-09-13 13:25:00,67.8,67.8,29.54,NNE,32,0.0,0.0,100,0.04,,---,0.28,VWS V14.01,2013-09-13 17:25:00,
2013-09-13 13:30:00,67.8,67.8,29.53,NNE,32,0.0,0.0,100,0.04,,---,0.28,VWS V14.01,2013-09-13 17:30:00,
2013-09-13 13:35:00,67.8,67.8,29.53,NNE,32,0.0,0.0,100,0.04,,---,0.28,VWS V14.01,2013-09-13 17:35:00,
2013-09-13 13:40:00,68.6,68.6,29.53,NNE,32,0.0,0.0,100,0.04,,---,0.28,VWS V14.01,2013-09-13 17:40:00,
2013-09-13 13:46:00,68.8,68.8,29.52,NNE,32,0.0,0.0,100,0.04,,---,0.28,VWS V14.01,2013-09-13 17:46:00,
2013-09-13 13:51:00,69.1,69.1,29.52,NNE,31,0.0,0.0,100,0.04,,---,0.28,VWS V14.01,2013-09-13 17:51:00,
2013-09-13 13:56:00,69.8,69.8,29.52,NNE,31,0.0,0.0,100,0.04,,---,0.28,VWS V14.01,2013-09-13 17:56:00,
2013-09-13 14:00:00,69.8,69.8,29.53,NNE,31,0.0,0.0,100,0.04,,---,-99.99,VWS V14.01,2013-09-13 18:00:00,
2013-09-13 14:01:00,69.9,69.9,29.53,NNE,31,0.0,0.0,100,0.02,,---,0.28,VWS V14.01,2013-09-13 18:01:00,
2013-09-13 14:06:00,70.8,70.8,29.53,NNE,31,0.0,0.0,100,0.02,,---,0.28,VWS V14.01,2013-09-13 18:06:00,
2013-09-13 14:11:00,69.6,69.6,29.53,NNE,31,0.0,0.0,100,0.02,,---,0.28,VWS V14.01,2013-09-13 18:11:00,
2013-09-13 14:16:00,69.6,69.6,29.52,NNE,31,0.0,0.0,100,0.02,,---,0.28,VWS V14.01,2013-09-13 18:16:00,
2013-09-13 14:21:00,69.4,69.4,29.52,NNE,31,0.0,0.0,100,0.02,,---,0.28,VWS V14.01,2013-09-13 18:21:00,
2013-09-13 14:26:00,69.8,69.8,29.52,NNE,31,0.0,0.0,100,0.02,,---,0.28,VWS V14.01,2013-09-13 18:26:00,
2013-09-13 14:31:00,69.6,69.6,29.52,NNE,31,0.0,0.0,100,0.02,,---,0.28,VWS V14.01,2013-09-13 18:31:00,
2013-09-13 14:36:00,69.8,69.8,29.52,NNE,31,0.0,0.0,100,0.02,,---,0.28,VWS V14.01,2013-09-13 18:36:00,
2013-09-13 14:41:00,70.6,70.6,29.52,NNE,31,0.0,0.0,100,0.02,,---,0.28,VWS V14.01,2013-09-13 18:41:00,
2013-09-13 14:47:00,69.6,69.6,29.52,NNE,31,0.0,0.0,100,0.02,,---,0.28,VWS V14.01,2013-09-13 18:47:00,
2013-09-13 14:52:00,69.6,69.6,29.52,NNE,31,0.0,0.0,100,0.02,,---,0.28,VWS V14.01,2013-09-13 18:52:00,
2013-09-13 14:57:00,69.4,69.4,29.52,NNE,31,0.0,0.0,100,0.02,,---,0.28,VWS V14.01,2013-09-13 18:57:00,
2013-09-13 15:00:00,69.4,69.4,29.51,NNE,31,0.0,0.0,100,0.02,,---,-99.99,VWS V14.01,2013-09-13 19:00:00,
2013-09-13 15:02:00,69.6,69.6,29.51,NNE,31,0.0,0.0,100,0.00,,---,0.28,VWS V14.01,2013-09-13 19:02:00,
2013-09-13 15:07:00,69.4,69.4,29.51,NNE,31,0.0,0.0,100,0.00,,---,0.28,VWS V14.01,2013-09-13 19:07:00,
2013-09-13 15:12:00,69.3,69.3,29.51,NNE,31,0.0,0.0,100,0.00,,---,0.28,VWS V14.01,2013-09-13 19:12:00,
2013-09-13 15:17:00,69.3,69.3,29.51,NNE,31,0.0,0.0,100,0.00,,---,0.28,VWS V14.01,2013-09-13 19:17:00,
2013-09-13 15:22:00,69.3,69.3,29.51,NNE,31,0.0,0.0,100,0.00,,---,0.28,VWS V14.01,2013-09-13 19:22:00,
2013-09-13 15:27:00,69.4,69.4,29.51,NNE,31,0.0,0.0,100,0.00,,---,0.28,VWS V14.01,2013-09-13 19:27:00,
2013-09-13 15:32:00,70.3,70.3,29.51,NNE,31,0.0,0.0,100,0.00,,---,0.28,VWS V14.01,2013-09-13 19:32:00,
2013-09-13 15:37:00,69.3,69.3,29.51,NNE,31,0.0,0.0,100,0.00,,---,0.28,VWS V14.01,2013-09-13 19:37:00,
2013-09-13 15:43:00,68.6,68.6,29.51,NNE,31,0.0,0.0,100,0.00,,---,0.28,VWS V14.01,2013-09-13 19:43:00,
2013-09-13 15:48:00,68.6,68.6,29.51,NNE,31,0.0,0.0,100,0.00,,---,0.28,VWS V14.01,2013-09-13 19:48:00,
2013-09-13 15:53:00,69.8,69.8,29.51,NNE,31,0.0,0.0,100,0.00,,---,0.28,VWS V14.01,2013-09-13 19:53:00,
2013-09-13 15:58:00,68.4,68.4,29.51,NNE,31,0.0,0.0,100,0.00,,---,0.28,VWS V14.01,2013-09-13 19:58:00,
2013-09-13 16:00:00,68.6,68.6,29.51,NNE,31,0.0,0.0,100,0.00,,---,-99.99,VWS V14.01,2013-09-13 20:00:00,
2013-09-13 16:03:00,68.6,68.6,29.51,NNE,31,0.0,0.0,100,0.00,,---,0.28,VWS V14.01,2013-09-13 20:03:00,
2013-09-13 16:08:00,68.6,68.6,29.51,NNE,31,0.0,0.0,100,0.00,,---,0.28,VWS V14.01,2013-09-13 20:08:00,
2013-09-13 16:13:00,68.6,68.6,29.51,NNE,31,0.0,0.0,100,0.00,,---,0.28,VWS V14.01,2013-09-13 20:13:00,
2013-09-13 16:18:00,68.6,68.6,29.51,NNE,31,0.0,0.0,100,0.00,,---,0.28,VWS V14.01,2013-09-13 20:18:00,
2013-09-13 16:23:00,68.6,68.6,29.51,NNE,31,0.0,0.0,100,0.00,,---,0.28,VWS V14.01,2013-09-13 20:23:00,
2013-09-13 16:29:00,68.6,68.6,29.51,North,0,0.0,0.0,100,0.00,,---,0.28,VWS V14.01,2013-09-13 20:29:00,
2013-09-13 16:34:00,68.3,68.3,29.51,North,359,0.0,0.0,100,0.00,,---,0.28,VWS V14.01,2013-09-13 20:34:00,
2013-09-13 16:39:00,68.4,68.4,29.51,North,0,0.0,0.0,100,0.00,,---,0.28,VWS V14.01,2013-09-13 20:39:00,
2013-09-13 16:44:00,68.1,68.1,29.52,NNE,27,0.0,0.0,100,0.00,,---,0.28,VWS V14.01,2013-09-13 20:44:00,
2013-09-13 16:49:00,68.1,68.1,29.52,NNE,25,0.0,0.0,100,0.00,,---,0.28,VWS V14.01,2013-09-13 20:49:00,
2013-09-13 16:54:00,68.1,68.1,29.52,NNE,25,0.0,0.0,100,0.00,,---,0.28,VWS V14.01,2013-09-13 20:54:00,
2013-09-13 16:59:00,68.1,68.1,29.52,NNE,25,0.0,0.0,100,0.00,,---,0.28,VWS V14.01,2013-09-13 20:59:00,
2013-09-13 17:00:00,68.1,68.1,29.52,NNE,25,0.0,0.0,100,0.00,,---,-99.99,VWS V14.01,2013-09-13 21:00:00,
2013-09-13 17:04:00,68.1,68.1,29.52,NNE,25,0.0,0.0,100,0.00,,---,0.28,VWS V14.01,2013-09-13 21:04:00,
2013-09-13 17:09:00,68.1,68.1,29.52,NNE,25,0.0,0.0,100,0.00,,---,0.28,VWS V14.01,2013-09-13 21:09:00,
2013-09-13 17:14:00,67.9,67.9,29.52,NNE,25,0.0,0.0,100,0.00,,---,0.28,VWS V14.01,2013-09-13 21:14:00,
2013-09-13 17:20:00,69.1,69.1,29.52,NNE,25,0.0,1.0,100,0.00,,---,0.28,VWS V14.01,2013-09-13 21:20:00,
2013-09-13 17:25:00,68.1,68.1,29.52,NNE,25,0.0,1.0,100,0.00,,---,0.28,VWS V14.01,2013-09-13 21:25:00,
2013-09-13 17:30:00,68.4,68.4,29.52,NNE,25,0.0,1.0,100,0.00,,---,0.28,VWS V14.01,2013-09-13 21:30:00,
2013-09-13 17:35:00,69.4,69.4,29.52,NNE,25,0.0,1.0,100,0.01,,---,0.29,VWS V14.01,2013-09-13 21:35:00,
2013-09-13 17:40:00,69.4,69.4,29.52,NNE,25,0.0,1.0,100,0.01,,---,0.29,VWS V14.01,2013-09-13 21:40:00,
2013-09-13 17:45:00,69.3,69.3,29.52,NNE,25,0.0,1.0,100,0.01,,---,0.29,VWS V14.01,2013-09-13 21:45:00,
2013-09-13 17:50:00,68.3,68.3,29.52,NNE,25,0.0,1.0,100,0.01,,---,0.29,VWS V14.01,2013-09-13 21:50:00,
2013-09-13 17:55:00,68.3,68.3,29.52,NNE,25,0.0,1.0,100,0.01,,---,0.29,VWS V14.01,2013-09-13 21:55:00,
2013-09-13 18:00:00,68.4,68.4,29.52,NNE,25,0.0,1.0,100,0.01,,---,-99.99,VWS V14.01,2013-09-13 22:00:00,
2013-09-13 18:01:00,68.4,68.4,29.52,NNE,25,0.0,0.0,100,0.01,,---,0.29,VWS V14.01,2013-09-13 22:01:00,
2013-09-13 18:06:00,69.3,69.3,29.52,NNE,25,0.0,0.0,100,0.01,,---,0.29,VWS V14.01,2013-09-13 22:06:00,
2013-09-13 18:11:00,67.9,67.9,29.52,NNE,25,0.0,0.0,100,0.01,,---,0.29,VWS V14.01,2013-09-13 22:11:00,
2013-09-13 18:16:00,67.9,67.9,29.52,NNE,25,0.0,0.0,100,0.01,,---,0.29,VWS V14.01,2013-09-13 22:16:00,
2013-09-13 18:21:00,69.1,69.1,29.52,NNE,25,0.0,0.0,100,0.01,,---,0.29,VWS V14.01,2013-09-13 22:21:00,
2013-09-13 18:26:00,67.9,67.9,29.52,NNE,25,0.0,0.0,100,0.01,,---,0.29,VWS V14.01,2013-09-13 22:26:00,
2013-09-13 18:31:00,67.8,67.8,29.52,NNE,25,0.0,0.0,100,0.01,,---,0.29,VWS V14.01,2013-09-13 22:31:00,
2013-09-13 18:36:00,67.6,67.6,29.52,NNE,25,0.0,0.0,100,0.01,,---,0.29,VWS V14.01,2013-09-13 22:36:00,
2013-09-13 18:41:00,68.6,68.6,29.52,NNE,25,0.0,0.0,100,0.01,,---,0.29,VWS V14.01,2013-09-13 22:41:00,
2013-09-13 18:46:00,67.6,67.6,29.52,NNE,25,0.0,0.0,100,0.01,,---,0.29,VWS V14.01,2013-09-13 22:46:00,
2013-09-13 18:51:00,67.4,67.4,29.52,NNE,25,0.0,0.0,100,0.01,,---,0.29,VWS V14.01,2013-09-13 22:51:00,
2013-09-13 18:56:00,67.6,67.6,29.52,NNE,25,0.0,0.0,100,0.01,,---,0.29,VWS V14.01,2013-09-13 22:56:00,
2013-09-13 19:00:00,67.4,67.4,29.52,NNE,25,0.0,0.0,100,0.01,,---,-99.99,VWS V14.01,2013-09-13 23:00:00,
2013-09-13 19:01:00,67.4,67.4,29.52,NNE,25,0.0,0.0,100,0.00,,---,0.29,VWS V14.01,2013-09-13 23:01:00,
2013-09-13 19:07:00,67.4,67.4,29.52,NNE,25,0.0,0.0,100,0.00,,---,0.29,VWS V14.01,2013-09-13 23:07:00,
2013-09-13 19:12:00,68.8,68.8,29.52,NNE,25,0.0,0.0,100,0.00,,---,0.29,VWS V14.01,2013-09-13 23:12:00,
2013-09-13 19:17:00,68.8,68.8,29.53,NNE,25,0.0,0.0,100,0.00,,---,0.29,VWS V14.01,2013-09-13 23:17:00,
2013-09-13 19:22:00,68.8,68.8,29.53,NNE,25,0.0,0.0,100,0.00,,---,0.29,VWS V14.01,2013-09-13 23:22:00,
2013-09-13 19:27:00,68.6,68.6,29.53,NNE,25,0.0,0.0,100,0.00,,---,0.29,VWS V14.01,2013-09-13 23:27:00,
2013-09-13 19:32:00,67.3,67.3,29.54,NNE,25,0.0,0.0,100,0.00,,---,0.29,VWS V14.01,2013-09-13 23:32:00,
2013-09-13 19:37:00,67.4,67.4,29.54,NNE,25,0.0,0.0,100,0.00,,---,0.29,VWS V14.01,2013-09-13 23:37:00,
2013-09-13 19:42:00,67.4,67.4,29.54,NNE,25,0.0,0.0,100,0.00,,---,0.29,VWS V14.01,2013-09-13 23:42:00,
2013-09-13 19:47:00,68.6,68.6,29.55,NNE,25,0.0,0.0,100,0.00,,---,0.29,VWS V14.01,2013-09-13 23:47:00,
2013-09-13 19:52:00,67.4,67.4,29.55,NNE,25,0.0,0.0,100,0.00,,---,0.29,VWS V14.01,2013-09-13 23:52:00,
2013-09-13 19:57:00,67.6,67.6,29.55,NNE,25,0.0,0.0,100,0.00,,---,0.29,VWS V14.01,2013-09-13 23:57:00,
2013-09-13 20:00:00,67.6,67.6,29.56,NNE,25,0.0,0.0,100,0.00,,---,-99.99,VWS V14.01,2013-09-14 00:00:00,
2013-09-13 20:02:00,67.6,67.6,29.56,NNE,25,0.0,0.0,100,0.00,,---,0.29,VWS V14.01,2013-09-14 00:02:00,
2013-09-13 20:07:00,67.6,67.6,29.56,NNE,25,0.0,0.0,100,0.00,,---,0.29,VWS V14.01,2013-09-14 00:07:00,
2013-09-13 20:12:00,67.6,67.6,29.56,NNE,25,0.0,0.0,100,0.00,,---,0.29,VWS V14.01,2013-09-14 00:12:00,
2013-09-13 20:17:00,68.8,68.8,29.56,NNE,25,0.0,0.0,100,0.00,,---,0.29,VWS V14.01,2013-09-14 00:17:00,
2013-09-13 20:22:00,68.8,68.8,29.56,NNE,25,0.0,0.0,100,0.00,,---,0.29,VWS V14.01,2013-09-14 00:22:00,
2013-09-13 20:28:00,67.4,67.4,29.56,NNE,25,0.0,0.0,100,0.00,,---,0.29,VWS V14.01,2013-09-14 00:28:00,
2013-09-13 20:33:00,67.4,67.4,29.57,NNE,25,0.0,0.0,100,0.00,,---,0.29,VWS V14.01,2013-09-14 00:33:00,
2013-09-13 20:38:00,67.4,67.4,29.57,NNE,25,0.0,0.0,100,0.00,,---,0.29,VWS V14.01,2013-09-14 00:38:00,
2013-09-13 20:43:00,67.6,67.6,29.57,NNE,25,0.0,0.0,100,0.00,,---,0.29,VWS V14.01,2013-09-14 00:43:00,
2013-09-13 20:48:00,67.3,67.3,29.57,NNE,25,0.0,0.0,100,0.00,,---,0.29,VWS V14.01,2013-09-14 00:48:00,
2013-09-13 20:53:00,67.1,67.1,29.57,NNE,25,0.0,0.0,100,0.00,,---,0.29,VWS V14.01,2013-09-14 00:53:00,
2013-09-13 20:58:00,67.1,67.1,29.57,WSW,241,3.0,3.0,100,0.00,,---,0.29,VWS V14.01,2013-09-14 00:58:00,
2013-09-13 21:00:00,67.1,67.1,29.58,WSW,251,0.0,3.0,100,0.00,,---,-99.99,VWS V14.01,2013-09-14 01:00:00,
2013-09-13 21:03:00,67.1,67.1,29.58,WSW,256,0.0,3.0,100,0.01,,---,0.30,VWS V14.01,2013-09-14 01:03:00,
2013-09-13 21:08:00,66.9,66.9,29.58,WSW,256,0.0,3.0,100,0.01,,---,0.30,VWS V14.01,2013-09-14 01:08:00,
2013-09-13 21:13:00,66.9,66.9,29.58,WSW,256,0.0,3.0,100,0.02,,---,0.31,VWS V14.01,2013-09-14 01:13:00,
2013-09-13 21:18:00,66.9,66.9,29.58,WNW,289,0.0,3.0,100,0.02,,---,0.31,VWS V14.01,2013-09-14 01:18:00,
2013-09-13 21:23:00,66.1,66.1,29.58,North,0,1.0,3.0,100,0.02,,---,0.31,VWS V14.01,2013-09-14 01:23:00,
2013-09-13 21:29:00,66.0,66.0,29.58,North,0,2.0,7.0,100,0.02,,---,0.31,VWS V14.01,2013-09-14 01:29:00,
2013-09-13 21:34:00,66.1,66.1,29.58,North,357,4.0,7.0,100,0.02,,---,0.31,VWS V14.01,2013-09-14 01:34:00,
2013-09-13 21:39:00,64.5,64.5,29.58,North,0,0.0,7.0,100,0.02,,---,0.31,VWS V14.01,2013-09-14 01:39:00,
2013-09-13 21:44:00,64.7,64.7,29.59,North,352,0.0,7.0,100,0.02,,---,0.31,VWS V14.01,2013-09-14 01:44:00,
2013-09-13 21:49:00,65.8,65.8,29.59,North,0,0.0,7.0,100,0.02,,---,0.31,VWS V14.01,2013-09-14 01:49:00,
2013-09-13 21:54:00,65.8,65.8,29.59,North,0,0.0,7.0,100,0.02,,---,0.31,VWS V14.01,2013-09-14 01:54:00,
2013-09-13 21:59:00,64.2,64.2,29.60,NNE,16,0.0,7.0,100,0.02,,---,0.31,VWS V14.01,2013-09-14 01:59:00,
2013-09-13 22:00:00,64.2,64.2,29.60,North,8,2.0,7.0,100,0.02,,---,-99.99,VWS V14.01,2013-09-14 02:00:00,
2013-09-13 22:04:00,64.0,64.0,29.60,North,3,0.0,6.0,100,0.02,,---,0.31,VWS V14.01,2013-09-14 02:04:00,
2013-09-13 22:09:00,63.5,63.5,29.60,NNE,14,3.0,6.0,100,0.03,,---,0.32,VWS V14.01,2013-09-14 02:09:00,
2013-09-13 22:14:00,63.7,63.7,29.59,North,3,0.0,6.0,100,0.03,,---,0.32,VWS V14.01,2013-09-14 02:14:00,
2013-09-13 22:19:00,63.4,63.4,29.59,North,349,2.0,6.0,100,0.03,,---,0.32,VWS V14.01,2013-09-14 02:19:00,
2013-09-13 22:24:00,63.2,63.2,29.59,North,359,0.0,6.0,100,0.03,,---,0.32,VWS V14.01,2013-09-14 02:24:00,
2013-09-13 22:29:00,63.2,63.2,29.60,North,1,2.0,6.0,100,0.03,,---,0.32,VWS V14.01,2013-09-14 02:29:00,
2013-09-13 22:34:00,64.7,64.7,29.60,North,8,0.0,6.0,100,0.03,,---,0.32,VWS V14.01,2013-09-14 02:34:00,
2013-09-13 22:40:00,63.2,63.2,29.60,North,4,0.0,7.0,100,0.03,,---,0.32,VWS V14.01,2013-09-14 02:40:00,
2013-09-13 22:45:00,63.4,63.4,29.59,North,350,5.0,7.0,100,0.03,,---,0.32,VWS V14.01,2013-09-14 02:45:00,
2013-09-13 22:50:00,63.4,63.4,29.59,North,0,6.0,7.0,100,0.03,,---,0.32,VWS V14.01,2013-09-14 02:50:00,
2013-09-13 22:55:00,63.4,63.4,29.59,NNE,31,5.0,7.0,100,0.03,,---,0.32,VWS V14.01,2013-09-14 02:55:00,
2013-09-13 23:00:00,63.1,63.1,29.58,North,350,0.0,0.0,100,0.01,,---,0.32,VWS V14.01,2013-09-14 03:00:00,
2013-09-13 23:05:00,62.9,62.9,29.58,ENE,61,0.0,0.0,100,0.01,,---,0.32,VWS V14.01,2013-09-14 03:05:00,
2013-09-13 23:10:00,62.7,62.7,29.58,North,350,0.0,5.0,100,0.01,,---,0.32,VWS V14.01,2013-09-14 03:10:00,
2013-09-13 23:15:00,62.7,62.7,29.58,NE,49,0.0,5.0,100,0.01,,---,0.32,VWS V14.01,2013-09-14 03:15:00,
2013-09-13 23:20:00,62.7,62.7,29.58,North,0,0.0,5.0,100,0.01,,---,0.32,VWS V14.01,2013-09-14 03:20:00,
2013-09-13 23:25:00,62.6,62.6,29.58,NNE,30,0.0,5.0,100,0.01,,---,0.32,VWS V14.01,2013-09-14 03:25:00,
2013-09-13 23:30:00,62.4,62.4,29.58,North,352,0.0,5.0,100,0.01,,---,0.32,VWS V14.01,2013-09-14 03:30:00,
2013-09-13 23:35:00,62.4,62.4,29.58,East,86,0.0,5.0,100,0.01,,---,0.32,VWS V14.01,2013-09-14 03:35:00,
2013-09-13 23:41:00,62.6,62.6,29.58,North,359,0.0,5.0,100,0.01,,---,0.32,VWS V14.01,2013-09-14 03:41:00,
2013-09-13 23:46:00,62.3,62.3,29.58,NE,37,0.0,5.0,100,0.01,,---,0.32,VWS V14.01,2013-09-14 03:46:00,
2013-09-13 23:51:00,62.3,62.3,29.58,North,11,0.0,5.0,100,0.01,,---,0.32,VWS V14.01,2013-09-14 03:51:00,
2013-09-13 23:56:00,62.3,62.3,29.58,NNW,342,0.0,5.0,100,0.01,,---,0.32,VWS V14.01,2013-09-14 03:56:00,